Time;durP1;ratioP1;P1;durP2;ratioP2;P2;SDS_P1;SDS_P2;PMS_P1;PMS_P2;Temp;Humidity;BMP_temperature;BMP_pressure;BME280_temperature;BME280_humidity;BME280_pressure;Samples;Min_cycle;Max_cycle;Signal;HPM_P1;HPM_P2
2021/04/02 00:01:13;;;;;;;26.20;7.57;;;;;;;7.18;79.30;102501.09;5037713;28;20441;-53
2021/04/02 00:03:39;;;;;;;19.60;8.32;;;;;;;7.14;79.47;102500.00;5055872;28;20056;-51
2021/04/02 00:06:09;;;;;;;20.30;8.30;;;;;;;7.12;79.29;102502.22;5055159;28;20504;-53
2021/04/02 00:08:35;;;;;;;31.00;10.02;;;;;;;7.10;79.32;102496.16;5055083;28;20068;-53
2021/04/02 00:11:07;;;;;;;14.52;6.32;;;;;;;7.09;79.46;102486.25;5054385;28;20414;-51
2021/04/02 00:13:36;;;;;;;17.88;7.05;;;;;;;7.07;79.11;102488.47;5054277;28;20037;-49
2021/04/02 00:16:04;;;;;;;16.15;6.97;;;;;;;7.05;79.04;102488.72;5053251;28;20033;-50
2021/04/02 00:18:31;;;;;;;23.00;7.32;;;;;;;7.03;79.25;102487.34;5054468;28;20106;-51
2021/04/02 00:20:59;;;;;;;20.27;6.43;;;;;;;7.04;78.88;102487.06;5055010;28;20072;-52
2021/04/02 00:23:27;;;;;;;23.50;9.35;;;;;;;7.02;79.11;102496.72;5054705;28;20119;-54
2021/04/02 00:25:54;;;;;;;18.33;6.25;;;;;;;7.02;79.19;102504.97;5054219;28;20059;-54
2021/04/02 00:28:23;;;;;;;14.38;6.57;;;;;;;7.00;79.19;102498.94;5052741;28;20041;-51
2021/04/02 00:30:55;;;;;;;16.52;6.95;;;;;;;6.98;79.27;102501.13;5053863;28;20041;-51
2021/04/02 00:33:24;;;;;;;16.67;6.72;;;;;;;6.95;79.15;102501.69;5053076;28;20142;-50
2021/04/02 00:35:52;;;;;;;19.00;6.30;;;;;;;6.94;79.31;102505.53;5052519;28;20043;-56
2021/04/02 00:38:20;;;;;;;23.65;6.80;;;;;;;6.96;79.26;102514.38;5053150;28;20045;-55
2021/04/02 00:40:50;;;;;;;25.00;7.15;;;;;;;6.95;79.04;102513.53;5053561;28;20088;-53
2021/04/02 00:43:20;;;;;;;20.45;6.35;;;;;;;6.94;79.13;102511.03;5044648;28;20045;-54
2021/04/02 00:45:46;;;;;;;17.33;6.60;;;;;;;6.92;79.37;102510.50;5052910;28;20347;-53
2021/04/02 00:48:12;;;;;;;18.42;6.35;;;;;;;6.93;79.25;102514.91;5052066;28;20648;-50
2021/04/02 00:50:40;;;;;;;22.23;6.60;;;;;;;6.92;79.22;102516.84;5051775;28;20120;-54
2021/04/02 00:53:08;;;;;;;22.20;6.78;;;;;;;6.94;79.19;102519.31;5052082;28;20490;-56
2021/04/02 00:55:36;;;;;;;25.40;6.78;;;;;;;6.91;79.05;102511.63;5052944;28;20103;-53
2021/04/02 00:58:03;;;;;;;22.60;7.07;;;;;;;6.92;79.04;102510.50;5053884;28;20148;-53
2021/04/02 01:00:31;;;;;;;21.10;6.50;;;;;;;6.93;79.11;102514.91;5053808;28;20457;-50
2021/04/02 01:02:58;;;;;;;19.38;5.85;;;;;;;6.91;79.48;102508.88;5053195;28;20086;-49
2021/04/02 01:05:29;;;;;;;28.77;7.28;;;;;;;6.90;79.39;102519.06;5036260;28;20508;-53
2021/04/02 01:08:09;;;;;;;13.43;5.72;;;;;;;6.87;79.75;102516.84;5053440;28;20120;-51
2021/04/02 01:10:37;;;;;;;26.15;6.00;;;;;;;6.87;79.80;102511.34;5052683;28;20379;-52
2021/04/02 01:13:56;;;;;;;17.67;6.05;;;;;;;6.85;79.83;102512.72;5052851;28;20131;-52
2021/04/02 01:16:34;;;;;;;21.55;7.03;;;;;;;6.84;79.61;102516.56;5039949;28;20053;-54
2021/04/02 01:19:17;;;;;;;15.52;5.25;;;;;;;6.87;79.58;102521.53;5052510;28;20532;-52
2021/04/02 01:21:51;;;;;;;17.65;5.95;;;;;;;6.85;79.58;102519.06;5053610;28;20051;-51
2021/04/02 01:24:38;;;;;;;23.35;5.93;;;;;;;6.86;79.24;102526.19;5053579;28;20044;-53
2021/04/02 01:27:14;;;;;;;14.43;5.47;;;;;;;6.85;79.23;102529.25;5053187;28;20073;-53
2021/04/02 01:30:08;;;;;;;17.17;6.05;;;;;;;6.84;79.35;102533.09;5052311;28;20041;-54
2021/04/02 01:32:43;;;;;;;22.20;5.97;;;;;;;6.82;79.47;102540.81;5048209;28;20070;-51
2021/04/02 01:35:18;;;;;;;18.58;6.55;;;;;;;6.77;79.60;102522.38;5048072;28;20097;-54
2021/04/02 01:38:12;;;;;;;18.38;6.70;;;;;;;6.77;79.78;102518.78;5052957;28;20053;-55
2021/04/02 01:41:03;;;;;;;15.10;5.47;;;;;;;6.78;79.57;102528.72;5013129;28;20136;-50
2021/04/02 01:43:39;;;;;;;17.60;6.50;;;;;;;6.75;79.50;102530.88;5030655;28;20047;-56
2021/04/02 01:46:07;;;;;;;22.05;6.22;;;;;;;6.75;79.37;102527.34;5052005;28;20075;-51
2021/04/02 01:48:38;;;;;;;20.50;6.10;;;;;;;6.70;79.83;102527.31;5052682;28;20120;-52
2021/04/02 01:51:06;;;;;;;13.85;4.82;;;;;;;6.66;79.75;102527.06;5053694;28;20048;-50
2021/04/02 01:53:36;;;;;;;19.98;5.57;;;;;;;6.65;79.40;102519.88;5053066;28;20044;-52
2021/04/02 01:56:06;;;;;;;20.70;6.13;;;;;;;6.64;79.71;102521.00;5053270;28;20041;-54
2021/04/02 01:58:33;;;;;;;14.95;5.45;;;;;;;6.63;79.60;102519.34;5053082;28;20037;-52
2021/04/02 02:01:02;;;;;;;25.83;5.00;;;;;;;6.60;79.77;102527.31;5053340;28;20065;-50
2021/04/02 02:03:30;;;;;;;24.75;5.80;;;;;;;6.59;79.95;102520.97;5052508;28;20127;-50
2021/04/02 02:05:56;;;;;;;26.45;6.22;;;;;;;6.60;79.43;102522.66;5052307;28;20045;-54
2021/04/02 02:08:25;;;;;;;20.10;5.78;;;;;;;6.60;79.42;102522.66;5052752;28;20073;-55
2021/04/02 02:11:01;;;;;;;26.95;6.95;;;;;;;6.56;79.68;102524.31;5052592;28;20053;-51
2021/04/02 02:13:30;;;;;;;13.10;5.20;;;;;;;6.56;79.58;102520.72;5053030;28;20121;-50
2021/04/02 02:15:58;;;;;;;16.42;5.00;;;;;;;6.54;79.69;102518.22;5048221;28;20087;-51
2021/04/02 02:18:26;;;;;;;21.10;5.63;;;;;;;6.54;79.71;102518.22;5072220;28;20090;-50
2021/04/02 02:20:55;;;;;;;22.55;5.50;;;;;;;6.56;79.74;102523.47;5072693;28;20047;-50
2021/04/02 02:23:21;;;;;;;20.27;5.05;;;;;;;6.55;79.74;102535.56;5071742;28;20115;-51
2021/04/02 02:25:48;;;;;;;16.70;5.38;;;;;;;6.53;79.63;102518.53;5071849;28;20135;-51
2021/04/02 02:28:16;;;;;;;15.48;5.32;;;;;;;6.49;79.90;102520.16;5038243;28;20068;-52
2021/04/02 02:30:44;;;;;;;13.57;5.20;;;;;;;6.49;79.73;102532.00;5052419;28;20045;-53
2021/04/02 02:33:12;;;;;;;18.98;5.18;;;;;;;6.47;80.09;102523.19;5052333;28;20414;-54
2021/04/02 02:35:40;;;;;;;28.45;6.43;;;;;;;6.46;79.93;102521.53;5052698;28;20106;-53
2021/04/02 02:38:08;;;;;;;19.27;4.45;;;;;;;6.48;80.13;102524.03;5052171;28;20041;-52
2021/04/02 02:40:37;;;;;;;18.00;4.50;;;;;;;6.46;80.01;102515.22;5052377;28;20072;-49
2021/04/02 02:43:04;;;;;;;15.77;4.57;;;;;;;6.46;80.12;102517.97;5052934;28;20073;-50
2021/04/02 02:45:32;;;;;;;14.00;4.82;;;;;;;6.42;80.11;102514.94;5052585;28;20135;-54
2021/04/02 02:47:59;;;;;;;15.90;5.40;;;;;;;6.41;79.93;102518.78;5052773;28;20082;-51
2021/04/02 02:50:30;;;;;;;18.27;4.82;;;;;;;6.40;80.09;102519.91;5034894;28;20111;-52
2021/04/02 02:52:58;;;;;;;14.13;4.80;;;;;;;6.37;80.18;102517.69;5051835;28;20096;-50
2021/04/02 02:55:47;;;;;;;15.60;4.60;;;;;;;6.36;79.99;102521.53;5037581;28;20045;-51
2021/04/02 02:58:37;;;;;;;19.30;4.97;;;;;;;6.33;80.00;102516.56;5051911;28;20083;-52
2021/04/02 03:01:26;;;;;;;23.27;6.90;;;;;;;6.31;80.00;102524.28;5052257;28;20060;-51
2021/04/02 03:03:53;;;;;;;22.60;5.30;;;;;;;6.28;80.17;102524.81;5051441;28;20065;-52
2021/04/02 03:06:25;;;;;;;14.80;5.40;;;;;;;6.28;79.91;102518.50;5051191;28;20071;-51
2021/04/02 03:08:53;;;;;;;11.43;4.13;;;;;;;6.26;80.05;102527.03;5048988;28;20068;-50
2021/04/02 03:11:21;;;;;;;17.45;4.82;;;;;;;6.26;79.98;102518.78;5050765;28;20083;-54
2021/04/02 03:13:50;;;;;;;17.35;4.50;;;;;;;6.27;79.95;102522.34;5054313;28;20113;-52
2021/04/02 03:16:20;;;;;;;24.25;5.28;;;;;;;6.26;80.03;102527.03;5056006;28;20052;-50
2021/04/02 03:18:50;;;;;;;15.60;4.72;;;;;;;6.26;79.64;102521.53;5056416;28;20115;-49
2021/04/02 03:21:18;;;;;;;15.40;4.28;;;;;;;6.25;80.07;102527.31;5055781;28;20049;-51
2021/04/02 03:23:46;;;;;;;17.02;5.80;;;;;;;6.23;80.08;102526.75;5035416;28;20042;-51
2021/04/02 03:26:17;;;;;;;20.75;5.95;;;;;;;6.18;80.11;102522.06;5035264;28;20387;-49
2021/04/02 03:28:44;;;;;;;14.63;4.55;;;;;;;6.19;80.25;102526.47;5035121;28;20045;-52
2021/04/02 03:31:12;;;;;;;12.30;4.13;;;;;;;6.18;80.06;102530.31;5054708;28;20059;-51
2021/04/02 03:33:51;;;;;;;13.82;4.43;;;;;;;6.14;80.21;102524.53;5055961;28;20045;-51
2021/04/02 03:36:20;;;;;;;17.75;6.00;;;;;;;6.13;80.29;102527.56;5055097;28;20045;-54
2021/04/02 03:38:48;;;;;;;7.88;3.90;;;;;;;6.15;80.02;102530.84;5055877;28;20438;-51
2021/04/02 03:41:22;;;;;;;14.90;4.82;;;;;;;6.12;79.98;102525.91;5055446;28;20073;-51
2021/04/02 03:43:50;;;;;;;15.07;4.00;;;;;;;6.09;80.40;102520.94;5054976;28;20037;-50
2021/04/02 03:46:18;;;;;;;15.05;4.47;;;;;;;6.09;80.38;102520.94;5055555;28;20076;-52
2021/04/02 03:48:48;;;;;;;11.02;4.32;;;;;;;6.09;80.08;102526.44;5054488;28;20127;-53
2021/04/02 03:51:20;;;;;;;16.05;4.15;;;;;;;6.06;80.29;102519.56;5054329;28;20393;-53
2021/04/02 03:53:51;;;;;;;13.65;4.40;;;;;;;6.04;80.14;102531.91;5053087;28;20047;-54
2021/04/02 03:56:23;;;;;;;17.38;4.50;;;;;;;6.03;80.38;102525.63;5055030;28;20040;-52
2021/04/02 03:58:52;;;;;;;8.80;4.38;;;;;;;6.04;80.41;102515.44;5052248;28;20039;-53
2021/04/02 04:01:24;;;;;;;14.20;4.22;;;;;;;6.03;80.60;102522.03;5036129;28;20076;-49
2021/04/02 04:03:53;;;;;;;11.23;4.65;;;;;;;6.03;80.39;102527.53;5053846;28;20551;-50
2021/04/02 04:06:21;;;;;;;22.17;7.35;;;;;;;6.03;80.29;102520.13;5054210;28;20091;-51
2021/04/02 04:08:52;;;;;;;25.20;4.88;;;;;;;6.03;80.46;102527.53;5038013;28;20041;-52
2021/04/02 04:11:22;;;;;;;22.15;4.85;;;;;;;6.03;80.47;102533.88;5034846;28;20081;-50
2021/04/02 04:13:50;;;;;;;11.43;4.80;;;;;;;6.05;80.22;102530.84;5034828;28;20069;-49
2021/04/02 04:16:20;;;;;;;15.15;5.80;;;;;;;6.09;80.53;102535.50;5034894;28;20099;-54
2021/04/02 04:19:08;;;;;;;16.33;5.38;;;;;;;6.11;80.57;102546.25;5017887;28;20089;-51
2021/04/02 04:21:40;;;;;;;16.73;5.07;;;;;;;6.14;80.24;102540.22;5033920;28;20116;-55
2021/04/02 04:24:11;;;;;;;18.40;4.88;;;;;;;6.14;80.25;102545.72;5036682;28;20049;-51
2021/04/02 04:26:39;;;;;;;20.55;5.22;;;;;;;6.13;80.53;102533.06;5054344;28;20041;-53
2021/04/02 04:29:07;;;;;;;15.45;4.95;;;;;;;6.12;80.33;102547.88;5054732;28;20076;-50
2021/04/02 04:31:34;;;;;;;23.17;6.10;;;;;;;6.12;80.31;102545.13;5055112;28;20102;-50
2021/04/02 04:34:01;;;;;;;19.25;4.93;;;;;;;6.11;80.29;102558.09;5054493;28;20439;-52
2021/04/02 04:36:30;;;;;;;21.98;6.57;;;;;;;6.11;80.51;102552.59;5054604;28;20079;-54
2021/04/02 04:38:59;;;;;;;23.15;5.07;;;;;;;6.13;80.40;102555.88;5053853;28;20136;-54
2021/04/02 04:41:26;;;;;;;15.93;5.53;;;;;;;6.16;80.31;102565.50;5053250;28;20123;-50
2021/04/02 04:43:54;;;;;;;17.65;5.35;;;;;;;6.16;80.33;102560.03;5054313;28;20127;-51
2021/04/02 04:46:20;;;;;;;11.38;4.68;;;;;;;6.13;80.22;102555.06;5054232;28;20119;-51
2021/04/02 04:48:47;;;;;;;13.23;5.07;;;;;;;6.09;80.19;102564.94;5054235;28;20041;-54
2021/04/02 04:51:19;;;;;;;14.93;5.80;;;;;;;6.02;80.39;102570.69;5035596;28;20079;-52
2021/04/02 04:53:47;;;;;;;;;;;;;;;5.99;80.99;102573.16;5053506;28;20116;-51
2021/04/02 04:56:15;;;;;;;16.30;4.72;;;;;;;5.99;80.40;102571.25;5053576;28;19967;-55
2021/04/02 04:58:46;;;;;;;10.60;3.75;;;;;;;6.01;80.18;102580.03;5053314;28;20127;-52
2021/04/02 05:01:14;;;;;;;16.88;5.70;;;;;;;5.99;80.07;102573.97;5053445;28;20076;-55
2021/04/02 05:03:41;;;;;;;11.98;4.13;;;;;;;6.00;80.45;102577.56;5053546;28;20044;-50
2021/04/02 05:06:13;;;;;;;16.95;4.78;;;;;;;5.99;80.50;102582.22;5054165;28;20044;-52
2021/04/02 05:08:42;;;;;;;13.27;4.55;;;;;;;5.99;80.33;102584.97;5037727;28;20073;-53
2021/04/02 05:11:11;;;;;;;17.02;4.45;;;;;;;5.99;79.91;102582.22;5042093;28;20133;-52
2021/04/02 05:13:39;;;;;;;16.13;4.25;;;;;;;5.96;80.13;102588.25;5053188;28;20041;-57
2021/04/02 05:16:07;;;;;;;15.90;6.00;;;;;;;5.94;79.97;102586.88;5053447;28;20485;-56
2021/04/02 05:18:35;;;;;;;18.90;4.65;;;;;;;5.91;80.15;102595.66;5052634;28;20045;-53
2021/04/02 05:21:01;;;;;;;24.42;5.53;;;;;;;5.90;80.07;102599.53;5053645;28;20111;-54
2021/04/02 05:23:30;;;;;;;10.32;3.47;;;;;;;5.88;80.06;102591.53;5054060;28;20044;-56
2021/04/02 05:25:56;;;;;;;14.80;4.63;;;;;;;5.87;80.18;102594.56;5053282;28;20076;-53
2021/04/02 05:28:23;;;;;;;20.17;6.30;;;;;;;5.85;80.18;102602.25;5053919;28;20049;-53
2021/04/02 05:30:51;;;;;;;18.02;4.95;;;;;;;5.83;79.96;102602.47;5053534;28;20048;-57
2021/04/02 05:33:19;;;;;;;15.77;4.40;;;;;;;5.84;79.96;102608.81;5053838;28;20482;-51
2021/04/02 05:35:46;;;;;;;10.45;4.45;;;;;;;5.84;80.08;102611.56;5053271;28;20576;-56
2021/04/02 05:38:14;;;;;;;16.33;4.03;;;;;;;5.84;80.03;102617.06;5053324;28;20131;-54
2021/04/02 05:41:12;;;;;;;15.10;4.40;;;;;;;5.78;80.15;102620.88;5052948;28;20548;-49
2021/04/02 05:43:59;;;;;;;10.15;4.65;;;;;;;5.76;79.96;102623.88;5053254;28;20498;-55
2021/04/02 05:46:26;;;;;;;15.60;4.55;;;;;;;5.70;79.65;102626.88;5053821;28;20045;-50
2021/04/02 05:49:04;;;;;;;17.60;3.90;;;;;;;5.69;80.03;102630.72;5053356;28;20052;-52
2021/04/02 05:51:32;;;;;;;16.52;4.55;;;;;;;5.70;79.95;102638.69;5053305;28;20045;-56
2021/04/02 05:53:59;;;;;;;11.10;3.70;;;;;;;5.70;79.45;102626.88;5052673;28;20541;-53
2021/04/02 05:56:26;;;;;;;10.05;3.78;;;;;;;5.73;79.43;102637.31;5052283;28;20048;-55
2021/04/02 05:58:54;;;;;;;6.93;3.72;;;;;;;5.75;79.37;102640.63;5033008;28;20132;-51
2021/04/02 06:01:21;;;;;;;11.73;3.05;;;;;;;5.77;79.34;102642.00;5053492;28;20065;-54
2021/04/02 06:03:47;;;;;;;13.38;3.13;;;;;;;5.80;79.06;102649.72;5053085;28;20083;-55
2021/04/02 06:06:14;;;;;;;14.30;3.38;;;;;;;5.85;78.95;102643.50;5034575;28;20041;-57
2021/04/02 06:08:45;;;;;;;7.85;2.65;;;;;;;5.88;78.43;102656.66;5050696;28;20049;-55
2021/04/02 06:11:14;;;;;;;7.75;3.05;;;;;;;5.88;78.48;102641.00;5052688;28;20085;-51
2021/04/02 06:13:40;;;;;;;5.63;2.25;;;;;;;5.90;78.39;102649.84;5053328;28;20136;-53
2021/04/02 06:16:07;;;;;;;5.15;1.70;;;;;;;5.93;77.96;102653.97;5053335;28;20546;-50
2021/04/02 06:18:41;;;;;;;9.50;1.92;;;;;;;5.97;77.87;102646.84;5052271;28;20544;-54
2021/04/02 06:21:08;;;;;;;4.43;1.55;;;;;;;6.00;77.98;102655.38;5052372;28;20079;-57
2021/04/02 06:23:37;;;;;;;9.60;2.63;;;;;;;6.05;77.91;102658.16;5052854;28;20077;-53
2021/04/02 06:26:06;;;;;;;5.18;1.45;;;;;;;6.07;77.41;102655.13;5053258;28;20132;-50
2021/04/02 06:28:34;;;;;;;9.18;1.70;;;;;;;6.06;77.05;102664.47;5053172;28;20088;-52
2021/04/02 06:31:11;;;;;;;13.05;2.10;;;;;;;6.07;77.10;102666.13;5050989;28;20045;-55
2021/04/02 06:33:51;;;;;;;6.03;1.55;;;;;;;6.12;76.63;102672.47;5052681;28;20048;-52
2021/04/02 06:36:28;;;;;;;11.38;2.05;;;;;;;6.18;76.75;102672.47;5052577;28;20108;-53
2021/04/02 06:38:58;;;;;;;6.28;1.70;;;;;;;6.16;76.51;102680.19;5052829;28;20517;-51
2021/04/02 06:41:29;;;;;;;2.40;1.33;;;;;;;6.15;76.16;102687.59;5052461;28;20075;-50
2021/04/02 06:43:57;;;;;;;4.93;1.60;;;;;;;6.18;76.23;102684.31;5034953;28;20443;-56
2021/04/02 06:46:25;;;;;;;8.35;1.95;;;;;;;6.19;76.25;102694.25;5045458;28;20155;-56
2021/04/02 06:48:52;;;;;;;7.05;1.67;;;;;;;6.24;76.08;102688.75;5055465;28;20401;-55
2021/04/02 06:51:20;;;;;;;8.32;1.60;;;;;;;6.23;76.01;102702.75;5038542;28;20111;-57
2021/04/02 06:54:07;;;;;;;6.65;1.48;;;;;;;6.17;75.35;102695.59;5055676;28;20045;-53
2021/04/02 06:57:04;;;;;;;8.98;1.50;;;;;;;6.16;75.52;102703.03;5055053;28;20060;-52
2021/04/02 06:59:54;;;;;;;11.77;1.50;;;;;;;6.19;75.26;102708.00;5041462;28;20577;-53
2021/04/02 07:02:43;;;;;;;4.82;1.55;;;;;;;6.24;75.41;102709.94;5054738;28;20047;-56
2021/04/02 07:05:31;;;;;;;6.80;1.90;;;;;;;6.26;75.18;102719.56;5054800;28;20053;-56
2021/04/02 07:08:17;;;;;;;6.43;1.83;;;;;;;6.30;75.36;102715.16;5056523;28;20045;-53
2021/04/02 07:10:45;;;;;;;7.32;1.55;;;;;;;6.40;75.58;102719.91;5055841;28;20597;-56
2021/04/02 07:13:12;;;;;;;4.45;1.50;;;;;;;6.43;75.18;102725.69;5056196;28;20069;-54
2021/04/02 07:15:38;;;;;;;11.00;1.35;;;;;;;6.46;75.16;102716.88;5053980;28;20076;-55
2021/04/02 07:18:08;;;;;;;15.25;2.00;;;;;;;6.54;75.00;102732.06;5055331;28;20489;-52
2021/04/02 07:20:35;;;;;;;3.90;1.35;;;;;;;6.51;74.52;102733.41;5038542;28;20041;-56
2021/04/02 07:23:03;;;;;;;6.97;2.65;;;;;;;6.49;74.73;102730.09;5069751;28;20431;-54
2021/04/02 07:25:30;;;;;;;6.68;1.35;;;;;;;6.53;74.33;102730.41;5075961;28;20067;-55
2021/04/02 07:27:57;;;;;;;6.47;1.10;;;;;;;6.50;74.34;102736.44;5074357;28;20044;-53
2021/04/02 07:30:29;;;;;;;8.05;2.13;;;;;;;6.44;73.71;102738.34;5076085;28;20040;-56
2021/04/02 07:33:01;;;;;;;5.75;1.98;;;;;;;6.46;73.84;102736.13;5076038;28;20123;-55
2021/04/02 07:35:27;;;;;;;6.60;1.48;;;;;;;6.58;74.25;102745.00;5075960;28;20044;-54
2021/04/02 07:37:56;;;;;;;6.00;1.25;;;;;;;6.65;74.03;102729.06;5073805;28;20044;-58
2021/04/02 07:40:32;;;;;;;4.10;1.00;;;;;;;6.65;73.65;102742.81;5043131;28;20536;-52
2021/04/02 07:43:01;;;;;;;4.15;2.08;;;;;;;6.68;73.49;102736.78;5043422;28;20076;-55
2021/04/02 07:45:31;;;;;;;4.63;1.17;;;;;;;6.70;73.24;102742.00;5055989;28;20390;-55
2021/04/02 07:48:17;;;;;;;4.85;1.60;;;;;;;6.82;73.63;102755.53;5066117;28;20107;-54
2021/04/02 07:54:03;;;;;;;4.65;1.27;;;;;;;7.09;72.80;102750.66;4104278;22;22350;-56
2021/04/02 07:56:33;;;;;;;3.85;1.10;;;;;;;7.11;72.05;102753.94;5075613;28;20127;-50
2021/04/02 07:59:04;;;;;;;5.22;1.25;;;;;;;7.08;72.51;102760.00;5070863;28;20045;-52
2021/04/02 08:01:31;;;;;;;3.83;1.08;;;;;;;7.01;72.22;102749.25;5069420;28;20216;-53
2021/04/02 08:04:04;;;;;;;6.88;1.08;;;;;;;6.94;71.92;102754.19;5070458;28;20055;-50
2021/04/02 08:06:38;;;;;;;5.60;1.00;;;;;;;7.06;72.21;102751.19;5068413;28;20040;-49
2021/04/02 08:09:08;;;;;;;6.45;1.42;;;;;;;7.23;72.37;102751.75;5069467;28;20135;-52
2021/04/02 08:11:37;;;;;;;2.80;1.10;;;;;;;7.35;71.90;102766.09;5050717;28;20044;-54
2021/04/02 08:14:09;;;;;;;4.80;0.90;;;;;;;7.38;71.71;102759.22;5050248;28;20435;-52
2021/04/02 08:16:40;;;;;;;;;;;;;;;7.19;68.91;102767.19;5049973;28;20525;-54
2021/04/02 08:19:14;;;;;;;10.40;3.80;;;;;;;7.24;71.26;102769.94;5050840;28;19967;-51
2021/04/02 08:22:03;;;;;;;3.88;1.10;;;;;;;7.28;70.98;102765.56;5053486;28;20044;-50
2021/04/02 08:24:35;;;;;;;6.65;1.08;;;;;;;7.23;70.79;102771.03;5067493;28;20045;-53
2021/04/02 08:27:05;;;;;;;2.20;0.70;;;;;;;7.27;70.96;102763.88;5068761;28;20051;-55
2021/04/02 08:29:33;;;;;;;5.45;1.08;;;;;;;7.40;71.36;102770.78;5051104;28;20079;-55
2021/04/02 08:32:08;;;;;;;7.60;1.80;;;;;;;7.51;70.86;102781.53;5049372;28;20049;-51
2021/04/02 08:34:35;;;;;;;10.05;1.20;;;;;;;7.57;71.02;102774.09;5051958;28;20049;-50
2021/04/02 08:37:09;;;;;;;4.57;1.40;;;;;;;7.66;71.34;102775.19;5071366;28;20048;-57
2021/04/02 08:39:36;;;;;;;3.80;1.25;;;;;;;7.79;71.51;102777.38;5067313;28;20123;-51
2021/04/02 08:42:05;;;;;;;3.45;1.30;;;;;;;7.94;71.59;102777.38;5066086;28;20135;-48
2021/04/02 08:44:41;;;;;;;6.82;1.00;;;;;;;8.11;71.17;102775.13;5071357;28;20490;-49
2021/04/02 08:47:10;;;;;;;4.97;0.77;;;;;;;8.32;71.73;102776.75;5089798;28;20101;-51
2021/04/02 08:49:42;;;;;;;6.90;1.98;;;;;;;8.36;71.18;102788.09;5071922;28;20432;-48
2021/04/02 08:52:13;;;;;;;8.80;1.67;;;;;;;8.45;71.25;102792.72;5065486;28;20541;-53
2021/04/02 08:54:41;;;;;;;5.88;1.52;;;;;;;8.69;72.27;102798.44;5063066;28;20054;-51
2021/04/02 08:57:10;;;;;;;7.55;2.10;;;;;;;8.58;69.19;102796.81;5064880;28;20123;-49
2021/04/02 08:59:42;;;;;;;8.45;1.42;;;;;;;8.46;69.44;102796.31;5069192;28;20044;-50
2021/04/02 09:02:10;;;;;;;6.90;1.17;;;;;;;8.49;68.91;102804.88;5069322;28;20514;-51
2021/04/02 09:04:37;;;;;;;6.45;1.38;;;;;;;8.83;70.12;102805.00;5056237;28;20119;-50
2021/04/02 09:07:04;;;;;;;4.68;1.00;;;;;;;9.71;71.09;102811.34;5068188;28;20083;-51
2021/04/02 09:09:32;;;;;;;5.28;1.15;;;;;;;10.28;69.06;102821.63;5069007;28;20047;-53
2021/04/02 09:12:07;;;;;;;4.82;1.15;;;;;;;10.43;67.01;102817.06;5069475;28;20504;-49
2021/04/02 09:14:33;;;;;;;3.55;1.08;;;;;;;10.38;67.14;102815.97;5069157;28;20154;-51
2021/04/02 09:17:00;;;;;;;5.43;1.30;;;;;;;10.25;66.20;102816.66;5069010;28;20125;-54
2021/04/02 09:19:26;;;;;;;5.40;1.33;;;;;;;10.00;65.37;102825.22;5078638;28;20075;-49
2021/04/02 09:21:55;;;;;;;3.33;1.15;;;;;;;9.76;65.06;102813.25;5084390;28;20058;-49
2021/04/02 09:24:23;;;;;;;3.80;1.73;;;;;;;10.17;65.34;102820.06;5049216;28;20048;-50
2021/04/02 09:26:50;;;;;;;12.30;1.30;;;;;;;10.46;65.17;102816.47;5067338;28;20059;-51
2021/04/02 09:29:19;;;;;;;4.97;1.20;;;;;;;10.13;63.97;102821.78;5068913;28;20135;-50
2021/04/02 09:31:47;;;;;;;3.60;0.70;;;;;;;10.00;63.90;102827.97;5051587;28;20076;-53
2021/04/02 09:34:18;;;;;;;7.35;1.08;;;;;;;10.10;64.29;102825.09;5068756;28;20079;-51
2021/04/02 09:36:49;;;;;;;6.50;1.17;;;;;;;10.57;64.16;102829.06;5075647;28;20052;-48
2021/04/02 09:39:23;;;;;;;5.43;1.17;;;;;;;11.43;63.32;102826.81;5065680;28;20580;-53
2021/04/02 09:41:58;;;;;;;8.32;1.30;;;;;;;11.89;61.89;102829.69;5045893;28;20060;-51
2021/04/02 09:44:29;;;;;;;4.53;0.88;;;;;;;11.96;62.86;102819.03;5068853;28;20052;-54
2021/04/02 09:47:13;;;;;;;8.00;1.05;;;;;;;12.23;60.68;102834.94;5069316;28;20098;-53
2021/04/02 09:49:41;;;;;;;3.85;0.70;;;;;;;12.61;61.22;102836.41;5068299;28;20361;-49
2021/04/02 09:52:08;;;;;;;3.30;0.80;;;;;;;13.04;59.75;102834.13;5039809;28;20044;-50
2021/04/02 09:54:37;;;;;;;10.52;1.00;;;;;;;13.70;58.82;102836.25;5057574;28;20060;-49
2021/04/02 09:57:08;;;;;;;1.77;0.70;;;;;;;13.71;56.91;102834.28;5050570;28;20119;-50
2021/04/02 09:59:36;;;;;;;6.22;0.93;;;;;;;13.66;58.04;102846.34;5049417;28;20037;-49
2021/04/02 10:02:03;;;;;;;5.20;1.15;;;;;;;12.92;57.67;102842.16;5048477;28;20083;-51
2021/04/02 10:04:30;;;;;;;9.75;1.40;;;;;;;11.94;56.93;102851.81;5032616;28;20053;-49
2021/04/02 10:06:57;;;;;;;4.40;0.70;;;;;;;11.27;57.18;102860.59;5055100;28;20032;-52
2021/04/02 10:09:25;;;;;;;9.88;2.50;;;;;;;10.79;57.96;102857.06;5062868;28;20073;-51
2021/04/02 10:11:51;;;;;;;8.80;2.17;;;;;;;10.85;58.50;102847.56;5043926;28;20044;-54
2021/04/02 10:14:19;;;;;;;6.22;1.25;;;;;;;10.97;58.36;102853.50;5048065;28;20545;-54
2021/04/02 10:16:46;;;;;;;3.67;0.70;;;;;;;10.76;58.37;102866.78;5048243;28;20080;-50
2021/04/02 10:19:16;;;;;;;5.80;1.02;;;;;;;10.60;58.03;102861.72;5048171;28;20044;-51
2021/04/02 10:21:43;;;;;;;2.95;1.17;;;;;;;10.34;58.57;102867.53;5049052;28;20072;-51
2021/04/02 10:24:10;;;;;;;5.70;0.95;;;;;;;10.25;58.96;102872.03;5051261;28;20132;-57
2021/04/02 10:26:37;;;;;;;8.75;1.55;;;;;;;10.18;59.00;102871.56;5052361;28;20132;-51
2021/04/02 10:29:04;;;;;;;4.55;0.95;;;;;;;10.13;59.10;102868.00;5052523;28;20059;-50
2021/04/02 10:31:31;;;;;;;7.80;1.73;;;;;;;9.90;58.99;102869.53;5053438;28;20041;-53
2021/04/02 10:33:58;;;;;;;4.43;0.70;;;;;;;9.85;59.84;102871.56;5051568;28;20069;-51
2021/04/02 10:36:24;;;;;;;4.05;1.67;;;;;;;9.84;59.88;102873.50;5053536;28;20053;-50
2021/04/02 10:38:50;;;;;;;3.03;0.70;;;;;;;9.81;60.01;102865.75;5052607;28;20044;-50
2021/04/02 10:41:17;;;;;;;4.22;0.95;;;;;;;9.72;60.00;102875.78;5061156;28;20458;-52
2021/04/02 10:43:44;;;;;;;4.72;1.52;;;;;;;10.02;60.27;102878.31;5060540;28;20072;-51
2021/04/02 10:46:12;;;;;;;8.52;1.27;;;;;;;10.36;60.10;102887.44;5052719;28;20116;-51
2021/04/02 10:48:39;;;;;;;2.15;0.90;;;;;;;10.36;60.17;102884.69;5049605;28;20047;-49
2021/04/02 10:51:07;;;;;;;6.97;0.93;;;;;;;10.36;59.82;102884.69;5052485;28;20076;-50
2021/04/02 10:53:33;;;;;;;6.95;0.80;;;;;;;10.20;59.80;102885.94;5052580;28;20080;-54
2021/04/02 10:56:03;;;;;;;2.83;0.70;;;;;;;10.07;60.02;102891.28;5042086;28;20068;-56
2021/04/02 10:58:31;;;;;;;3.55;0.85;;;;;;;10.06;59.92;102895.97;5052803;28;20068;-50
2021/04/02 11:00:58;;;;;;;6.18;0.77;;;;;;;9.88;60.22;102882.84;5052788;28;20051;-51
2021/04/02 11:03:25;;;;;;;4.50;1.00;;;;;;;9.72;60.37;102889.59;5032269;28;20141;-51
2021/04/02 11:05:51;;;;;;;3.67;1.45;;;;;;;9.56;60.57;102893.59;5031666;28;20077;-54
2021/04/02 11:08:18;;;;;;;4.85;1.30;;;;;;;9.24;60.51;102896.00;5036368;28;20119;-51
2021/04/02 11:10:44;;;;;;;4.18;1.00;;;;;;;9.20;61.05;102892.97;5054280;28;20633;-50
2021/04/02 11:13:10;;;;;;;3.63;1.42;;;;;;;9.16;61.18;102876.13;5051553;28;20513;-49
2021/04/02 11:15:37;;;;;;;6.63;0.90;;;;;;;9.16;61.61;102897.38;5034152;28;20050;-57
2021/04/02 11:18:03;;;;;;;5.30;1.00;;;;;;;9.18;61.36;102884.97;5058693;28;20040;-50
2021/04/02 11:20:30;;;;;;;4.88;0.70;;;;;;;9.29;61.37;102882.16;5052025;28;20049;-50
2021/04/02 11:22:57;;;;;;;6.03;1.27;;;;;;;9.28;61.25;102888.78;5050925;28;20049;-55
2021/04/02 11:25:24;;;;;;;4.00;0.77;;;;;;;9.16;61.51;102892.69;5052025;28;20041;-53
2021/04/02 11:27:51;;;;;;;7.10;2.13;;;;;;;9.26;61.74;102885.47;5055223;28;20048;-52
2021/04/02 11:30:20;;;;;;;4.55;0.90;;;;;;;9.14;61.62;102888.56;5051582;28;20045;-53
2021/04/02 11:32:47;;;;;;;8.15;1.60;;;;;;;9.08;62.19;102873.94;5052095;28;20049;-53
2021/04/02 11:35:13;;;;;;;1.98;0.77;;;;;;;9.06;62.21;102892.75;5056072;28;20040;-49
2021/04/02 11:37:41;;;;;;;2.78;1.30;;;;;;;8.98;62.22;102889.72;5052097;28;20131;-55
2021/04/02 11:40:10;;;;;;;3.08;0.80;;;;;;;8.93;62.27;102890.59;5058076;28;20037;-52
2021/04/02 11:42:37;;;;;;;4.93;0.98;;;;;;;8.91;62.29;102887.28;5050336;28;20045;-52
2021/04/02 11:45:05;;;;;;;10.68;1.00;;;;;;;8.86;62.75;102897.53;5050507;28;20132;-52
2021/04/02 11:47:32;;;;;;;4.70;1.15;;;;;;;9.05;63.13;102882.00;5051956;28;20132;-52